createdAt,value
2022-07-28T00:02:34.000Z,34.24
2022-07-28T00:07:35.000Z,35.08
2022-07-28T00:12:34.000Z,35.08
2022-07-28T00:17:34.000Z,35.69
2022-07-28T00:22:34.000Z,34.4
2022-07-28T00:27:34.000Z,35.05
2022-07-28T00:32:35.000Z,34.98
2022-07-28T00:37:36.000Z,34.71
2022-07-28T00:42:35.000Z,35.33
2022-07-28T00:47:35.000Z,35.58
2022-07-28T00:52:34.000Z,34.76
2022-07-28T00:57:35.000Z,34.76
2022-07-28T01:02:34.000Z,36.02
2022-07-28T01:07:35.000Z,36.03
2022-07-28T01:12:35.000Z,37.61
2022-07-28T01:17:35.000Z,36.65
2022-07-28T01:22:35.000Z,36.41
2022-07-28T01:27:35.000Z,37.78
2022-07-28T01:32:34.000Z,36.17
2022-07-28T01:37:34.000Z,36.17
2022-07-28T01:42:35.000Z,37.24
2022-07-28T01:47:35.000Z,35.49
2022-07-28T01:52:35.000Z,34.93
2022-07-28T01:57:35.000Z,34.93
2022-07-28T02:02:34.000Z,35.7
2022-07-28T02:07:35.000Z,36.59
2022-07-28T02:12:34.000Z,37.13
2022-07-28T02:17:35.000Z,36.86
2022-07-28T02:22:35.000Z,36.62
2022-07-28T02:27:34.000Z,36.62
2022-07-28T02:32:38.000Z,37.57
2022-07-28T02:37:35.000Z,36.73
2022-07-28T02:42:34.000Z,40.47
2022-07-28T02:47:35.000Z,41.9
2022-07-28T02:52:34.000Z,42.44
2022-07-28T02:57:35.000Z,41.43
2022-07-28T03:02:35.000Z,41.65
2022-07-28T03:07:35.000Z,42.14
2022-07-28T03:12:35.000Z,42.14
2022-07-28T03:17:35.000Z,42.06
2022-07-28T03:22:34.000Z,41.8
2022-07-28T03:27:35.000Z,40.38
2022-07-28T03:32:34.000Z,40.48
2022-07-28T03:37:35.000Z,39.26
2022-07-28T03:42:34.000Z,38.86
2022-07-28T03:47:35.000Z,38.13
2022-07-28T03:52:36.000Z,38.04
2022-07-28T03:57:35.000Z,38.04
2022-07-28T04:02:35.000Z,37.58
2022-07-28T04:07:35.000Z,36.88
2022-07-28T04:12:34.000Z,37.07
2022-07-28T04:17:35.000Z,36.67
2022-07-28T04:22:34.000Z,36.46
2022-07-28T04:32:34.000Z,34.88
2022-07-28T04:37:34.000Z,34.88
2022-07-28T04:47:34.000Z,32.67
2022-07-28T04:52:35.000Z,32.07
2022-07-28T04:57:36.000Z,30.62
2022-07-28T05:02:35.000Z,31.05
2022-07-28T05:07:34.000Z,30.18
2022-07-28T05:12:35.000Z,30.18
2022-07-28T05:17:34.000Z,30.64
2022-07-28T05:22:35.000Z,29.96
2022-07-28T05:27:35.000Z,30.47
2022-07-28T05:32:35.000Z,29.99
2022-07-28T05:37:35.000Z,29.01
2022-07-28T05:42:35.000Z,27.57
2022-07-28T05:47:34.000Z,26.13
2022-07-28T05:52:35.000Z,23.4
2022-07-28T05:57:34.000Z,21.13
2022-07-28T06:02:35.000Z,21.13
2022-07-28T06:12:35.000Z,19.6
2022-07-28T06:17:34.000Z,18.32
2022-07-28T06:22:35.000Z,18.07
2022-07-28T06:27:35.000Z,17.4
2022-07-28T06:32:34.000Z,18.35
2022-07-28T06:37:34.000Z,18.35
2022-07-28T06:42:35.000Z,17.54
2022-07-28T06:47:35.000Z,17.01
2022-07-28T06:52:35.000Z,16.87
2022-07-28T06:57:43.000Z,17.15
2022-07-28T07:02:38.000Z,16.38
2022-07-28T07:07:34.000Z,17.15
2022-07-28T07:12:34.000Z,17.48
2022-07-28T07:17:35.000Z,16.91
2022-07-28T07:22:34.000Z,17.66
2022-07-28T07:27:35.000Z,17.66
2022-07-28T07:32:34.000Z,17.6
2022-07-28T07:37:35.000Z,17.56
2022-07-28T07:42:35.000Z,17.27
2022-07-28T07:47:34.000Z,15.86
2022-07-28T07:52:35.000Z,16.26
2022-07-28T07:57:34.000Z,15.83
2022-07-28T08:02:35.000Z,15.23
2022-07-28T08:07:34.000Z,15.4
2022-07-28T08:12:35.000Z,15.4
2022-07-28T08:17:36.000Z,16.05
2022-07-28T08:22:34.000Z,16.21
2022-07-28T08:27:34.000Z,15.36
2022-07-28T08:32:35.000Z,15.57
2022-07-28T08:37:35.000Z,16.16
2022-07-28T08:42:35.000Z,16.85
2022-07-28T08:57:35.000Z,16.21
2022-07-28T09:02:35.000Z,17.37
2022-07-28T09:07:34.000Z,16.12
2022-07-28T09:12:37.000Z,15.67
2022-07-28T09:17:35.000Z,16.18
2022-07-28T09:22:34.000Z,16.9
2022-07-28T09:27:35.000Z,16.43
2022-07-28T09:32:35.000Z,16.43
2022-07-28T09:37:37.000Z,17.51
2022-07-28T09:42:34.000Z,17.29
2022-07-28T09:47:35.000Z,17.3
2022-07-28T09:52:35.000Z,15.94
2022-07-28T09:57:37.000Z,12.66
2022-07-28T10:02:36.000Z,10.73
2022-07-28T10:07:35.000Z,10.73
2022-07-28T10:12:34.000Z,11.28
2022-07-28T10:17:34.000Z,11.35
2022-07-28T10:22:35.000Z,11.06
2022-07-28T10:32:34.000Z,12.59
2022-07-28T10:37:34.000Z,11.65
2022-07-28T10:42:35.000Z,11.65
2022-07-28T10:47:46.000Z,12.5
2022-07-28T10:52:58.000Z,13.33
2022-07-28T10:57:37.000Z,14.45
2022-07-28T11:02:35.000Z,13.43
2022-07-28T11:07:34.000Z,13.64
2022-07-28T11:12:38.000Z,13.93
2022-07-28T11:17:43.000Z,13.78
2022-07-28T11:22:34.000Z,13.78
2022-07-28T11:27:35.000Z,14.1
2022-07-28T11:32:37.000Z,14.47
2022-07-28T11:37:34.000Z,14.18
2022-07-28T11:42:35.000Z,13.8
2022-07-28T11:47:35.000Z,11.36
2022-07-28T11:52:34.000Z,11.81
2022-07-28T12:02:35.000Z,12.9
2022-07-28T12:07:34.000Z,12.9
2022-07-28T12:12:35.000Z,13.62
2022-07-28T12:17:37.000Z,13.49
2022-07-28T12:22:36.000Z,13.72
2022-07-28T12:27:41.000Z,13.77
2022-07-28T12:32:35.000Z,12.78
2022-07-28T12:37:35.000Z,12.78
2022-07-28T12:42:34.000Z,13.6
2022-07-28T12:52:34.000Z,14.36
2022-07-28T12:57:35.000Z,14.39
2022-07-28T13:07:35.000Z,14.01
2022-07-28T13:12:34.000Z,15.22
2022-07-28T13:17:35.000Z,13.38
2022-07-28T13:22:34.000Z,13.38
2022-07-28T13:27:34.000Z,13.17
2022-07-28T13:32:35.000Z,12.4
2022-07-28T13:37:35.000Z,12.2
2022-07-28T13:42:35.000Z,11.16
2022-07-28T13:47:35.000Z,12.13
2022-07-28T13:52:44.000Z,12.79
2022-07-28T13:57:36.000Z,14.23
2022-07-28T14:02:36.000Z,14.62
2022-07-28T14:07:35.000Z,14.62
2022-07-28T14:12:36.000Z,15.27
2022-07-28T14:17:54.000Z,10.92
2022-07-28T14:22:35.000Z,10.15
2022-07-28T14:27:39.000Z,11.24
2022-07-28T14:32:34.000Z,12.48
2022-07-28T14:47:55.000Z,10.62
2022-07-28T14:52:34.000Z,10.63
2022-07-28T14:58:04.000Z,11.17
2022-07-28T15:02:39.000Z,11.26
2022-07-28T15:07:35.000Z,9.73
2022-07-28T15:12:35.000Z,10.63
2022-07-28T15:17:35.000Z,10.07
2022-07-28T15:22:36.000Z,10.07
2022-07-28T15:27:35.000Z,10.38
2022-07-28T15:32:38.000Z,11.29
2022-07-28T15:37:35.000Z,12.06
2022-07-28T15:42:35.000Z,13.19
2022-07-28T15:47:35.000Z,11.95
2022-07-28T15:52:34.000Z,11.9
2022-07-28T15:57:47.000Z,13.61
2022-07-28T16:02:34.000Z,13.61
2022-07-28T16:07:35.000Z,15.8
2022-07-28T16:12:35.000Z,13.39
2022-07-28T16:17:35.000Z,12.98
2022-07-28T16:22:35.000Z,13.24
2022-07-28T16:27:35.000Z,14.32
2022-07-28T16:32:34.000Z,15.7
2022-07-28T16:37:35.000Z,15.7
2022-07-28T16:42:35.000Z,15.34
2022-07-28T16:47:35.000Z,15.25
2022-07-28T16:52:35.000Z,15.55
2022-07-28T16:57:34.000Z,15.82
2022-07-28T17:02:34.000Z,16.58
2022-07-28T17:07:35.000Z,15.41
2022-07-28T17:12:35.000Z,14.37
2022-07-28T17:17:34.000Z,14.37
2022-07-28T17:22:34.000Z,13.84
2022-07-28T17:27:49.000Z,13.55
2022-07-28T17:32:35.000Z,14.29
2022-07-28T17:37:35.000Z,13.88
2022-07-28T17:42:35.000Z,14.69
2022-07-28T17:47:46.000Z,15.7
2022-07-28T17:52:34.000Z,15.7
2022-07-28T17:57:36.000Z,14.4
2022-07-28T18:02:35.000Z,13.63
2022-07-28T18:07:35.000Z,14.96
2022-07-28T18:12:37.000Z,17.45
2022-07-28T18:17:35.000Z,15.29
2022-07-28T18:22:35.000Z,15.65
2022-07-28T18:27:34.000Z,15.6
2022-07-28T18:32:34.000Z,15.6
2022-07-28T18:37:34.000Z,15.44
2022-07-28T18:47:35.000Z,14.18
2022-07-28T18:52:35.000Z,13.98
2022-07-28T18:57:35.000Z,12.26
2022-07-28T19:02:36.000Z,11.02
2022-07-28T19:07:34.000Z,10.75
2022-07-28T19:12:35.000Z,10.53
2022-07-28T19:17:36.000Z,10.53
2022-07-28T19:22:34.000Z,11.74
2022-07-28T19:27:40.000Z,8.17
2022-07-28T19:32:34.000Z,6.67
2022-07-28T19:42:34.000Z,6.24
2022-07-28T19:47:35.000Z,5.05
2022-07-28T19:52:36.000Z,4.92
2022-07-28T19:57:35.000Z,5.57
2022-07-28T20:02:35.000Z,5.3
2022-07-28T20:07:34.000Z,5.3
2022-07-28T20:12:34.000Z,4.7
2022-07-28T20:22:35.000Z,4.5
2022-07-28T20:27:34.000Z,4.75
2022-07-28T20:32:34.000Z,4.06
2022-07-28T20:37:47.000Z,4.24
2022-07-28T20:42:35.000Z,4.14
2022-07-28T20:47:34.000Z,4.39
2022-07-28T20:52:35.000Z,4.39
2022-07-28T20:57:34.000Z,4.48
2022-07-28T21:02:34.000Z,3.83
2022-07-28T21:08:11.000Z,5.08
2022-07-28T21:12:35.000Z,4.69
2022-07-28T21:17:34.000Z,3.54
2022-07-28T21:22:35.000Z,4.22
2022-07-28T21:27:34.000Z,4.22
2022-07-28T21:32:35.000Z,3.93
2022-07-28T21:37:35.000Z,3.45
2022-07-28T21:42:35.000Z,3.43
2022-07-28T21:47:34.000Z,3.29
2022-07-28T21:52:34.000Z,2.64
2022-07-28T21:57:35.000Z,2.77
2022-07-28T22:02:35.000Z,3.15
2022-07-28T22:17:35.000Z,3.56
2022-07-28T22:22:34.000Z,4.45
2022-07-28T22:32:39.000Z,3.64
2022-07-28T22:42:35.000Z,3.78
2022-07-28T22:47:35.000Z,3.51
2022-07-28T22:52:34.000Z,3.5
2022-07-28T22:57:35.000Z,3.34
2022-07-28T23:02:35.000Z,3.11
2022-07-28T23:08:01.000Z,3.9
2022-07-28T23:12:35.000Z,4.51
2022-07-28T23:17:35.000Z,5.02
2022-07-28T23:22:35.000Z,5.6
2022-07-28T23:27:34.000Z,5.6
2022-07-28T23:32:35.000Z,3.94
2022-07-28T23:37:35.000Z,3.66
2022-07-28T23:42:34.000Z,3.63
2022-07-28T23:47:35.000Z,3.63
2022-07-28T23:52:35.000Z,3.51
2022-07-28T23:57:41.000Z,3.32
